Terminal Aerodrome Forecast
Issued by NWS Charleston, WV

Current Version | Previous Version | Text Only | Print | Product List | Glossary Off
Versions: 1 2 3 4 5 6 7 8 9 10 11 12 13 14 15 16 17 18 19 20 21

832
FTUS41 KRLX 032330
TAFCRW
TAF
KCRW 032330Z 0400/0424 25007KT P6SM SCT040 BKN120
     FM040600 28007KT P6SM SCT035
     FM040700 27007KT P6SM BKN035
     FM040800 27006KT P6SM BKN025
     FM042000 28006KT P6SM OVC035=

USA.gov is the U.S. government's official web portal to all federal, state and local government web resources and services.